Time;durP1;ratioP1;P1;durP2;ratioP2;P2;SDS_P1;SDS_P2;PMS_P1;PMS_P2;Temp;Humidity;BMP_temperature;BMP_pressure;BME280_temperature;BME280_humidity;BME280_pressure;Samples;Min_cycle;Max_cycle;Signal;HPM_P1;HPM_P2
2022/02/15 00:00:36;;;;;;;2.97;1.35;;;;;;;2.81;91.11;96703.72;5066492;28;20098;-63
2022/02/15 00:03:03;;;;;;;3.28;1.38;;;;;;;2.59;90.80;96704.09;5082316;28;20036;-62
2022/02/15 00:05:29;;;;;;;3.33;1.48;;;;;;;2.40;91.99;96712.03;5086233;28;20433;-62
2022/02/15 00:07:56;;;;;;;4.05;1.67;;;;;;;2.51;93.39;96701.69;5085834;28;20044;-62
2022/02/15 00:10:23;;;;;;;2.40;1.30;;;;;;;2.53;92.91;96716.47;5086026;28;20036;-62
2022/02/15 00:12:53;;;;;;;4.90;1.77;;;;;;;2.53;92.38;96719.16;5073442;28;20083;-62
2022/02/15 00:15:20;;;;;;;3.53;1.55;;;;;;;2.38;91.83;96714.09;5081020;28;20044;-62
2022/02/15 00:17:46;;;;;;;3.28;1.65;;;;;;;2.31;91.90;96718.66;5065162;28;20400;-62
2022/02/15 00:20:13;;;;;;;3.22;1.60;;;;;;;2.37;92.44;96717.00;5065927;28;20047;-62
2022/02/15 00:22:40;;;;;;;3.90;1.70;;;;;;;2.40;92.46;96712.03;5081453;28;20043;-62
2022/02/15 00:25:07;;;;;;;3.40;1.65;;;;;;;2.32;92.63;96714.97;5085701;28;20044;-62
2022/02/15 00:27:33;;;;;;;3.63;1.90;;;;;;;2.36;92.61;96707.34;5071473;28;20118;-62
2022/02/15 00:30:00;;;;;;;3.70;1.70;;;;;;;2.38;92.90;96700.75;5065169;28;20033;-62
2022/02/15 00:32:27;;;;;;;2.95;1.38;;;;;;;2.35;92.20;96703.84;5076982;28;20032;-62
2022/02/15 00:34:53;;;;;;;2.42;1.30;;;;;;;2.28;92.33;96703.09;5085362;28;20044;-62
2022/02/15 00:37:20;;;;;;;2.28;1.15;;;;;;;2.24;92.56;96701.88;5073141;28;20051;-62
2022/02/15 00:39:46;;;;;;;3.42;1.48;;;;;;;2.24;92.82;96694.66;5073613;28;20422;-62
2022/02/15 00:42:14;;;;;;;3.70;1.48;;;;;;;2.18;92.61;96703.56;5084121;28;20047;-62
2022/02/15 00:44:41;;;;;;;2.75;1.15;;;;;;;2.20;92.72;96696.97;5081181;28;20060;-62
2022/02/15 00:47:07;;;;;;;2.65;1.27;;;;;;;2.16;93.24;96694.91;5084991;28;20071;-63
2022/02/15 00:49:34;;;;;;;2.83;1.40;;;;;;;2.17;93.17;96691.19;5083805;28;20036;-62
2022/02/15 00:52:01;;;;;;;4.65;1.60;;;;;;;2.30;93.29;96693.00;5085923;28;20116;-62
2022/02/15 00:54:27;;;;;;;2.35;1.42;;;;;;;2.40;93.05;96700.53;5101405;28;20051;-62
2022/02/15 00:56:54;;;;;;;2.63;1.40;;;;;;;2.54;92.77;96696.72;5084877;28;20040;-62
2022/02/15 00:59:20;;;;;;;2.03;1.20;;;;;;;2.74;91.51;96698.44;5077977;28;20496;-62
2022/02/15 01:01:47;;;;;;;3.13;1.50;;;;;;;2.95;90.96;96691.06;5078602;28;20036;-62
2022/02/15 01:04:13;;;;;;;2.65;1.23;;;;;;;2.95;89.49;96689.19;5081391;28;20036;-62
2022/02/15 01:06:40;;;;;;;3.05;1.52;;;;;;;2.76;90.03;96695.53;5076898;28;20586;-62
2022/02/15 01:09:07;;;;;;;3.72;1.33;;;;;;;2.70;89.50;96698.03;5068594;28;20131;-62
2022/02/15 01:11:35;;;;;;;2.60;1.10;;;;;;;2.52;91.11;96704.16;5065558;28;20072;-62
2022/02/15 01:14:02;;;;;;;3.55;1.40;;;;;;;2.43;91.00;96711.59;5077146;28;20113;-62
2022/02/15 01:16:28;;;;;;;2.90;1.60;;;;;;;2.42;91.46;96709.13;5079365;28;20120;-62
2022/02/15 01:18:55;;;;;;;2.78;1.20;;;;;;;2.33;90.88;96706.72;5086274;28;20036;-62
2022/02/15 01:21:21;;;;;;;4.65;1.67;;;;;;;2.34;91.41;96711.06;5068273;28;20044;-62
2022/02/15 01:23:49;;;;;;;2.55;1.25;;;;;;;2.30;91.51;96703.69;5067675;28;20049;-62
2022/02/15 01:26:16;;;;;;;2.95;1.40;;;;;;;2.39;91.75;96705.06;5076624;28;20595;-62
2022/02/15 01:28:43;;;;;;;3.38;1.23;;;;;;;2.46;91.65;96703.16;5089214;28;20131;-62
2022/02/15 01:31:11;;;;;;;2.53;1.30;;;;;;;2.65;91.08;96703.22;5080887;28;20044;-62
2022/02/15 01:33:37;;;;;;;3.58;1.35;;;;;;;2.69;90.34;96714.31;5068197;28;20044;-62
2022/02/15 01:36:04;;;;;;;2.15;1.02;;;;;;;2.79;89.96;96716.47;5088805;28;20032;-62
2022/02/15 01:38:31;;;;;;;1.77;0.90;;;;;;;2.88;89.86;96714.38;5070356;28;20036;-62
2022/02/15 01:41:01;;;;;;;2.45;1.20;;;;;;;2.94;89.33;96711.63;5068193;28;20036;-62
2022/02/15 01:43:30;;;;;;;2.28;1.20;;;;;;;3.07;88.95;96718.72;5080204;28;20075;-62
2022/02/15 01:45:57;;;;;;;2.65;1.17;;;;;;;3.06;88.73;96711.72;5085034;28;20039;-62
2022/02/15 01:48:24;;;;;;;2.40;0.98;;;;;;;3.05;88.50;96710.09;5088071;28;20051;-62
2022/02/15 01:50:50;;;;;;;2.38;1.08;;;;;;;3.08;88.30;96711.50;5084087;28;20123;-62
2022/02/15 01:53:17;;;;;;;2.08;1.00;;;;;;;3.14;88.14;96709.81;5099380;28;20054;-62
2022/02/15 01:55:44;;;;;;;2.75;1.15;;;;;;;3.20;87.75;96708.91;5087288;28;20047;-62
2022/02/15 01:58:11;;;;;;;2.53;1.25;;;;;;;3.19;87.53;96704.59;5067373;28;20044;-62
2022/02/15 02:00:41;;;;;;;4.00;1.35;;;;;;;3.15;87.66;96704.25;5069472;28;20123;-63
2022/02/15 02:03:19;;;;;;;2.85;1.20;;;;;;;3.14;88.09;96709.81;5085483;28;20101;-62
2022/02/15 02:05:49;;;;;;;2.67;1.13;;;;;;;3.16;87.91;96721.94;5067152;28;20045;-62
2022/02/15 02:08:21;;;;;;;2.28;1.13;;;;;;;3.06;88.16;96708.25;5067064;28;20527;-62
2022/02/15 02:10:51;;;;;;;4.07;1.20;;;;;;;3.10;88.21;96707.56;5069398;28;20040;-62
2022/02/15 02:13:40;;;;;;;2.08;0.90;;;;;;;3.11;88.55;96705.72;5085326;28;20051;-62
2022/02/15 02:16:09;;;;;;;3.83;1.48;;;;;;;3.13;88.29;96706.31;5084853;28;20044;-62
2022/02/15 02:18:44;;;;;;;4.82;1.20;;;;;;;3.03;87.48;96706.84;5087008;28;20052;-62
2022/02/15 02:21:12;;;;;;;2.05;1.08;;;;;;;2.70;88.07;96707.91;5076803;28;20032;-63
2022/02/15 02:23:41;;;;;;;2.08;1.10;;;;;;;2.62;88.56;96709.03;5086088;28;20653;-62
2022/02/15 02:26:13;;;;;;;1.95;1.00;;;;;;;2.48;88.98;96710.97;5073178;28;20135;-62
2022/02/15 02:28:41;;;;;;;3.78;1.27;;;;;;;2.33;89.36;96712.06;5086792;28;20040;-62
2022/02/15 02:31:08;;;;;;;2.35;1.17;;;;;;;2.11;89.69;96711.59;5064519;28;20055;-62
2022/02/15 02:33:43;;;;;;;2.55;1.30;;;;;;;1.97;90.69;96726.88;5084942;28;20617;-62
2022/02/15 02:36:10;;;;;;;2.47;1.20;;;;;;;1.82;91.13;96716.47;5082899;28;20082;-62
2022/02/15 02:38:37;;;;;;;6.82;1.48;;;;;;;1.73;90.97;96720.41;5067520;28;20045;-62
2022/02/15 02:41:04;;;;;;;3.00;1.55;;;;;;;1.72;92.18;96726.75;5066847;28;20037;-63
2022/02/15 02:43:32;;;;;;;3.92;1.80;;;;;;;1.59;92.24;96727.63;5077289;28;20076;-62
2022/02/15 02:45:59;;;;;;;5.28;2.15;;;;;;;1.58;92.13;96721.47;5082290;28;20052;-62
2022/02/15 02:48:26;;;;;;;4.65;2.03;;;;;;;1.48;92.76;96715.75;5081198;28;20072;-62
2022/02/15 02:50:53;;;;;;;3.47;1.48;;;;;;;1.48;92.30;96724.59;5085734;28;20085;-62
2022/02/15 02:53:22;;;;;;;4.82;1.75;;;;;;;1.43;92.50;96725.22;5106198;28;20134;-62
2022/02/15 02:55:49;;;;;;;3.10;1.50;;;;;;;1.40;92.57;96733.63;5106430;28;20044;-62
2022/02/15 02:58:15;;;;;;;3.60;1.92;;;;;;;1.38;92.30;96741.03;5085820;28;20511;-62
2022/02/15 03:00:42;;;;;;;5.03;1.77;;;;;;;1.43;92.81;96743.88;5086509;28;20109;-62
2022/02/15 03:03:14;;;;;;;5.18;1.95;;;;;;;1.55;92.86;96746.72;5071847;28;20101;-62
2022/02/15 03:05:46;;;;;;;8.15;2.08;;;;;;;1.62;92.47;96748.56;5066093;28;20523;-62
2022/02/15 03:08:14;;;;;;;4.97;1.88;;;;;;;1.63;91.96;96748.34;5080084;28;20482;-62
2022/02/15 03:10:41;;;;;;;3.88;1.90;;;;;;;1.65;91.95;96743.63;5066409;28;20039;-62
2022/02/15 03:13:13;;;;;;;3.90;2.05;;;;;;;1.71;91.88;96752.63;5084799;28;20085;-62
2022/02/15 03:15:41;;;;;;;5.45;1.95;;;;;;;1.77;92.47;96749.13;5082404;28;20663;-63
2022/02/15 03:18:07;;;;;;;3.83;1.67;;;;;;;1.93;92.05;96741.66;5085795;28;20044;-62
2022/02/15 03:20:34;;;;;;;3.20;1.58;;;;;;;2.02;92.13;96750.25;5073428;28;20043;-62
2022/02/15 03:23:01;;;;;;;3.28;1.80;;;;;;;2.11;91.57;96742.81;5076766;28;20515;-62
2022/02/15 03:25:28;;;;;;;3.72;1.73;;;;;;;1.99;89.78;96742.69;5082267;28;20131;-62
2022/02/15 03:27:56;;;;;;;3.60;1.70;;;;;;;1.91;90.42;96746.38;5085595;28;20048;-62
2022/02/15 03:30:25;;;;;;;3.10;1.40;;;;;;;1.91;90.93;96751.72;5074844;28;20608;-62
2022/02/15 03:32:54;;;;;;;5.15;1.90;;;;;;;1.89;90.84;96753.81;5083535;28;20036;-62
2022/02/15 03:35:21;;;;;;;4.75;1.77;;;;;;;1.91;91.39;96752.56;5084678;28;20089;-62
2022/02/15 03:37:59;;;;;;;3.58;1.52;;;;;;;2.03;91.50;96758.03;5077998;28;20044;-62
2022/02/15 03:43:04;;;;;;;5.75;1.73;;;;;;;2.21;92.43;96761.88;5084893;28;20043;-62
2022/02/15 03:43:16;;;;;;;5.13;2.17;;;;;;;2.28;91.26;96753.84;5072998;28;20039;-62
2022/02/15 03:45:43;;;;;;;2.70;1.38;;;;;;;2.36;91.65;96755.44;5083560;28;20036;-62
2022/02/15 03:48:13;;;;;;;3.58;1.30;;;;;;;2.44;91.06;96763.19;5083088;28;20120;-62
2022/02/15 03:50:42;;;;;;;2.70;1.25;;;;;;;2.15;89.71;96763.56;5084024;28;20036;-62
2022/02/15 03:53:09;;;;;;;3.35;1.35;;;;;;;2.10;90.56;96774.03;5102378;28;20655;-62
2022/02/15 03:55:37;;;;;;;4.25;1.55;;;;;;;1.95;91.20;96774.31;5087034;28;20045;-62
2022/02/15 03:58:05;;;;;;;3.78;1.70;;;;;;;1.98;92.45;96771.22;5063622;28;20075;-62
2022/02/15 04:00:31;;;;;;;3.47;1.65;;;;;;;2.07;92.64;96774.47;5084112;28;20864;-62
2022/02/15 04:03:08;;;;;;;3.15;1.50;;;;;;;1.96;91.96;96775.97;5077891;28;20055;-62
2022/02/15 04:05:35;;;;;;;3.63;1.70;;;;;;;1.99;92.16;96777.41;5084836;28;20055;-62
2022/02/15 04:08:02;;;;;;;3.53;1.50;;;;;;;2.00;92.11;96779.03;5083837;28;20089;-62
2022/02/15 04:10:30;;;;;;;4.03;1.30;;;;;;;1.95;91.69;96775.13;5084569;28;20051;-62
2022/02/15 04:12:56;;;;;;;3.95;2.00;;;;;;;1.98;91.81;96786.44;5073179;28;20037;-62
2022/02/15 04:15:23;;;;;;;3.30;1.67;;;;;;;1.96;92.40;96797.31;5066549;28;20048;-62
2022/02/15 04:17:54;;;;;;;3.58;1.58;;;;;;;2.01;92.21;96797.50;5064416;28;20502;-62
2022/02/15 04:20:21;;;;;;;3.28;1.50;;;;;;;2.07;92.21;96793.19;5063770;28;20043;-63
2022/02/15 04:22:47;;;;;;;3.08;1.40;;;;;;;2.14;91.82;96793.16;5065744;28;20451;-62
2022/02/15 04:25:16;;;;;;;2.55;1.20;;;;;;;2.19;91.35;96802.16;5083503;28;20044;-62
2022/02/15 04:27:44;;;;;;;4.53;1.83;;;;;;;2.13;90.71;96803.00;5084019;28;20066;-62
2022/02/15 04:30:11;;;;;;;4.13;1.38;;;;;;;2.07;90.83;96804.66;5082988;28;20048;-62
2022/02/15 04:32:42;;;;;;;3.55;1.80;;;;;;;2.14;90.62;96801.97;5078890;28;20051;-62
2022/02/15 04:35:09;;;;;;;2.80;1.27;;;;;;;2.21;90.66;96805.44;5079887;28;20046;-62
2022/02/15 04:37:36;;;;;;;3.47;1.27;;;;;;;2.23;90.61;96809.75;5083234;28;20067;-62
2022/02/15 04:40:05;;;;;;;3.00;1.15;;;;;;;2.26;90.57;96802.13;5066983;28;20044;-62
2022/02/15 04:42:32;;;;;;;3.05;1.38;;;;;;;2.25;90.60;96802.34;5083717;28;20036;-62
2022/02/15 04:44:58;;;;;;;3.28;1.50;;;;;;;2.26;91.06;96796.78;5077284;28;20566;-62
2022/02/15 04:47:35;;;;;;;4.22;1.23;;;;;;;2.21;91.14;96807.28;5083176;28;20047;-62
2022/02/15 04:50:03;;;;;;;2.10;1.10;;;;;;;2.31;91.27;96809.50;5080908;28;20151;-62
2022/02/15 04:52:30;;;;;;;5.38;1.20;;;;;;;2.34;90.77;96809.09;5078103;28;20090;-62
2022/02/15 04:54:59;;;;;;;2.72;1.10;;;;;;;2.39;91.00;96816.47;5086457;28;20648;-62
2022/02/15 04:57:25;;;;;;;3.25;1.42;;;;;;;2.41;90.17;96827.75;5069033;28;20037;-62
2022/02/15 04:59:53;;;;;;;2.85;1.20;;;;;;;2.35;90.42;96821.41;5070906;28;20511;-63
2022/02/15 05:02:34;;;;;;;1.80;1.00;;;;;;;2.28;90.21;96834.00;5089170;28;20523;-62
2022/02/15 05:05:01;;;;;;;4.35;1.08;;;;;;;2.20;90.48;96825.16;5071946;28;20040;-62
2022/02/15 05:07:39;;;;;;;2.03;1.20;;;;;;;2.21;91.07;96832.16;5073058;28;20052;-62
2022/02/15 05:10:06;;;;;;;4.03;1.33;;;;;;;2.16;91.64;96839.97;5087662;28;20503;-62
2022/02/15 05:12:38;;;;;;;2.55;1.45;;;;;;;2.07;91.10;96828.69;5068238;28;20613;-62
2022/02/15 05:15:09;;;;;;;4.18;1.20;;;;;;;2.11;91.87;96839.81;5068283;28;20130;-62
2022/02/15 05:18:06;;;;;;;2.63;1.25;;;;;;;2.32;91.14;96846.69;5063631;28;20052;-62
2022/02/15 05:20:33;;;;;;;2.85;1.50;;;;;;;2.49;90.70;96848.06;5067826;28;20040;-62
2022/02/15 05:23:00;;;;;;;6.15;1.60;;;;;;;2.70;89.63;96854.97;5072901;28;20523;-62
2022/02/15 05:25:36;;;;;;;3.22;1.60;;;;;;;2.91;88.93;96853.78;5087547;28;20050;-62
2022/02/15 05:28:03;;;;;;;3.47;1.40;;;;;;;3.10;87.90;96853.91;5069798;28;20044;-62
2022/02/15 05:30:30;;;;;;;5.28;2.22;;;;;;;3.16;87.31;96854.88;5067473;28;20050;-63
2022/02/15 05:33:09;;;;;;;6.20;1.60;;;;;;;3.29;86.50;96852.09;5078544;28;20135;-63
2022/02/15 05:35:44;;;;;;;1.95;0.90;;;;;;;3.38;86.38;96858.00;5086062;28;20101;-62
2022/02/15 05:38:11;;;;;;;2.72;1.20;;;;;;;3.42;87.12;96859.19;5087204;28;20043;-63
2022/02/15 05:40:41;;;;;;;2.58;1.30;;;;;;;3.41;86.71;96864.75;5073158;28;20537;-63
2022/02/15 05:43:13;;;;;;;3.33;1.17;;;;;;;3.21;86.64;96863.88;5085166;28;20059;-62
2022/02/15 05:45:46;;;;;;;3.55;1.30;;;;;;;3.20;88.17;96864.09;5086647;28;20072;-63
2022/02/15 05:48:23;;;;;;;3.28;1.15;;;;;;;3.22;88.05;96873.56;5073696;28;20045;-63
2022/02/15 05:50:55;;;;;;;3.05;1.30;;;;;;;3.38;87.08;96880.22;5071377;28;20074;-63
2022/02/15 05:53:28;;;;;;;3.28;1.27;;;;;;;3.56;86.26;96881.31;5097552;28;20040;-63
2022/02/15 05:55:58;;;;;;;4.30;1.55;;;;;;;3.50;85.80;96877.66;5075180;28;20523;-62
2022/02/15 05:58:35;;;;;;;3.17;1.30;;;;;;;3.40;86.87;96881.88;5068199;28;20725;-63
2022/02/15 06:01:02;;;;;;;2.00;1.00;;;;;;;3.39;86.79;96883.72;5077753;28;20044;-63
2022/02/15 06:06:19;;;;;;;3.75;1.23;;;;;;;3.27;88.17;96878.25;5082448;28;20491;-63
2022/02/15 06:08:46;;;;;;;4.00;1.38;;;;;;;3.25;87.71;96883.81;5081179;28;20104;-63
2022/02/15 06:11:12;;;;;;;3.70;1.50;;;;;;;3.30;88.08;96882.34;5086141;28;20050;-63
2022/02/15 06:13:43;;;;;;;2.90;1.33;;;;;;;3.31;88.35;96886.69;5087772;28;20051;-62
2022/02/15 06:16:12;;;;;;;4.90;1.45;;;;;;;3.38;88.57;96893.63;5106978;28;20054;-62
2022/02/15 06:18:59;;;;;;;7.30;1.85;;;;;;;3.49;87.96;96905.47;5086525;28;20073;-62
2022/02/15 06:21:31;;;;;;;2.42;1.30;;;;;;;3.66;86.76;96904.09;5084136;28;20971;-63
2022/02/15 06:23:58;;;;;;;4.22;1.42;;;;;;;3.50;86.82;96909.78;5084880;28;20039;-63
2022/02/15 06:26:50;;;;;;;4.47;1.80;;;;;;;3.58;86.81;96918.59;5076721;28;20051;-63
2022/02/15 06:29:37;;;;;;;6.50;1.13;;;;;;;3.81;85.69;96922.50;5101592;28;20521;-63
2022/02/15 06:32:21;;;;;;;3.10;1.20;;;;;;;3.86;85.98;96933.38;5086598;28;20080;-63
2022/02/15 06:34:47;;;;;;;3.83;1.13;;;;;;;3.92;85.91;96926.34;5076095;28;20044;-63
2022/02/15 06:37:16;;;;;;;3.33;1.15;;;;;;;3.81;86.34;96933.22;5083514;28;20036;-62
2022/02/15 06:39:48;;;;;;;4.43;1.60;;;;;;;3.66;87.38;96936.22;5073376;28;20055;-63
2022/02/15 06:42:17;;;;;;;6.60;1.83;;;;;;;3.55;88.04;96943.09;5084479;28;20089;-63
2022/02/15 06:44:45;;;;;;;5.97;1.75;;;;;;;3.57;88.11;96933.81;5075504;28;20048;-63
2022/02/15 06:47:14;;;;;;;4.03;1.48;;;;;;;3.67;88.34;96946.72;5084303;28;20123;-63
2022/02/15 06:49:41;;;;;;;6.53;2.10;;;;;;;3.53;88.56;96947.88;5088560;28;20096;-63
2022/02/15 06:52:24;;;;;;;7.75;1.83;;;;;;;3.19;90.61;96954.25;5096140;28;20046;-63
2022/02/15 06:55:06;;;;;;;14.32;2.45;;;;;;;3.09;91.19;96953.88;5096809;28;20512;-65
2022/02/15 06:57:39;;;;;;;5.15;1.67;;;;;;;3.13;91.20;96957.78;5082649;28;20052;-65
2022/02/15 07:00:06;;;;;;;7.35;2.05;;;;;;;3.25;90.57;96956.06;5082596;28;20048;-65
2022/02/15 07:02:36;;;;;;;5.57;2.05;;;;;;;3.43;89.25;96964.41;5083176;28;20044;-65
2022/02/15 07:05:07;;;;;;;5.28;1.67;;;;;;;3.62;88.07;96967.97;5082487;28;20044;-65
2022/02/15 07:07:33;;;;;;;6.40;1.77;;;;;;;3.76;87.43;96968.72;5082405;28;20048;-65
2022/02/15 07:10:05;;;;;;;5.32;2.00;;;;;;;3.85;86.87;96977.28;5082209;28;20040;-65
2022/02/15 07:12:52;;;;;;;4.55;1.55;;;;;;;3.87;86.81;96976.03;5068748;28;20048;-65
2022/02/15 07:15:25;;;;;;;4.72;2.13;;;;;;;3.98;86.02;96979.03;5085277;28;20045;-65
2022/02/15 07:18:02;;;;;;;3.65;1.40;;;;;;;4.12;85.35;96990.44;5078256;28;20101;-65
2022/02/15 07:20:43;;;;;;;3.45;1.25;;;;;;;4.09;85.21;96982.88;5082195;28;20085;-65
2022/02/15 07:23:39;;;;;;;2.20;0.80;;;;;;;4.03;85.07;96977.31;5076183;28;20058;-65
2022/02/15 07:26:24;;;;;;;3.40;0.82;;;;;;;4.01;84.75;96981.25;5084635;28;20059;-65
2022/02/15 07:29:09;;;;;;;2.13;1.10;;;;;;;4.03;84.83;96988.03;5090920;28;20048;-65
2022/02/15 07:31:51;;;;;;;2.10;1.05;;;;;;;3.93;84.60;96990.41;5076676;28;20572;-59
2022/02/15 07:34:18;;;;;;;3.92;1.02;;;;;;;3.81;85.57;96992.16;5083928;28;20129;-61
2022/02/15 07:36:45;;;;;;;4.38;1.38;;;;;;;3.73;86.09;96994.03;5077419;28;20738;-61
2022/02/15 07:39:12;;;;;;;2.30;0.85;;;;;;;3.68;86.26;97001.91;5078561;28;20055;-61
2022/02/15 07:41:39;;;;;;;1.92;0.90;;;;;;;3.86;86.24;96998.50;5076531;28;20506;-63
2022/02/15 07:44:06;;;;;;;4.40;1.30;;;;;;;3.89;85.54;97005.28;5098949;28;20086;-59
2022/02/15 07:46:44;;;;;;;2.97;1.00;;;;;;;3.96;85.32;97014.09;5065000;28;20234;-61
2022/02/15 07:49:10;;;;;;;2.22;0.90;;;;;;;3.92;85.18;97015.56;5089156;28;20059;-63
2022/02/15 07:51:37;;;;;;;1.95;1.27;;;;;;;3.93;85.08;97016.34;5084739;28;20031;-62
2022/02/15 07:54:03;;;;;;;1.90;0.90;;;;;;;3.96;85.11;97016.75;5088862;28;20058;-61
2022/02/15 07:56:32;;;;;;;4.47;1.38;;;;;;;4.02;84.95;97013.19;5071949;28;20579;-59
2022/02/15 07:58:59;;;;;;;2.55;1.20;;;;;;;4.00;85.40;97022.50;5094245;28;20036;-63
2022/02/15 08:01:25;;;;;;;4.40;1.45;;;;;;;3.98;85.94;97028.06;5086611;28;20036;-61
2022/02/15 08:03:53;;;;;;;2.03;1.00;;;;;;;3.98;86.21;97030.75;5084362;28;20047;-62
2022/02/15 08:06:23;;;;;;;5.15;1.05;;;;;;;4.02;86.26;97029.28;5079662;28;20554;-62
2022/02/15 08:08:53;;;;;;;3.40;0.95;;;;;;;4.06;86.26;97028.84;5065432;28;20275;-61
2022/02/15 08:11:20;;;;;;;3.03;1.20;;;;;;;4.08;86.04;97029.44;5072546;28;20040;-62
2022/02/15 08:13:49;;;;;;;2.72;1.30;;;;;;;4.19;85.58;97035.94;5086070;28;20051;-61
2022/02/15 08:16:16;;;;;;;5.10;1.65;;;;;;;4.25;85.19;97037.75;5084461;28;20048;-60
2022/02/15 08:18:43;;;;;;;3.03;1.60;;;;;;;4.26;85.36;97029.50;5076550;28;20051;-60
2022/02/15 08:21:10;;;;;;;4.50;1.63;;;;;;;4.32;85.11;97037.69;5086055;28;20040;-62
2022/02/15 08:23:56;;;;;;;3.92;1.80;;;;;;;4.37;84.47;97045.91;5075553;28;20040;-62
2022/02/15 08:26:24;;;;;;;4.03;1.92;;;;;;;4.16;85.35;97045.25;5073743;28;20066;-64
2022/02/15 08:28:51;;;;;;;3.88;1.75;;;;;;;4.28;85.40;97054.22;5092224;28;20719;-64
2022/02/15 08:31:18;;;;;;;4.07;2.13;;;;;;;4.27;85.27;97057.94;5081433;28;20060;-65
2022/02/15 08:33:45;;;;;;;4.95;2.10;;;;;;;4.38;85.16;97066.28;5077042;28;20044;-63
2022/02/15 08:36:12;;;;;;;4.03;1.98;;;;;;;4.56;84.41;97070.88;5075695;28;20044;-64
2022/02/15 08:38:38;;;;;;;3.63;1.50;;;;;;;4.49;83.97;97079.00;5093183;28;20069;-64
2022/02/15 08:41:05;;;;;;;5.18;2.53;;;;;;;4.51;84.14;97076.94;5087102;28;20055;-64
2022/02/15 08:43:32;;;;;;;3.15;1.63;;;;;;;4.56;83.65;97070.88;5077870;28;20423;-64
2022/02/15 08:45:59;;;;;;;3.28;1.88;;;;;;;4.77;82.77;97082.25;5083779;28;20059;-64
2022/02/15 08:48:26;;;;;;;5.43;2.42;;;;;;;4.88;83.35;97080.69;5072508;28;20056;-64
2022/02/15 08:50:52;;;;;;;4.95;2.58;;;;;;;4.79;83.41;97072.94;5081847;28;20450;-64
2022/02/15 08:53:19;;;;;;;3.40;1.90;;;;;;;4.75;81.85;97084.34;5084888;28;20051;-63
2022/02/15 08:55:46;;;;;;;4.50;2.65;;;;;;;4.67;83.36;97093.47;5077475;28;20415;-64
2022/02/15 08:58:12;;;;;;;7.07;2.80;;;;;;;4.68;82.94;97093.25;5076883;28;20048;-65
2022/02/15 09:00:39;;;;;;;7.45;2.08;;;;;;;4.92;81.18;97100.66;5078655;28;20489;-63
2022/02/15 09:03:06;;;;;;;6.72;2.70;;;;;;;5.03;81.76;97101.78;5084680;28;20036;-64
2022/02/15 09:05:32;;;;;;;4.05;1.98;;;;;;;5.15;80.58;97096.50;5081167;28;20074;-65
2022/02/15 09:08:00;;;;;;;3.28;1.75;;;;;;;5.24;81.24;97097.88;5081933;28;20059;-63
2022/02/15 09:10:26;;;;;;;7.38;2.67;;;;;;;5.17;81.03;97100.59;5079962;28;20040;-65
2022/02/15 09:12:53;;;;;;;7.22;3.20;;;;;;;5.18;80.08;97096.06;5083013;28;20168;-65
2022/02/15 09:15:20;;;;;;;6.38;2.70;;;;;;;5.40;79.55;97100.97;5083652;28;20048;-63
2022/02/15 09:17:46;;;;;;;4.82;2.00;;;;;;;5.54;79.73;97102.47;5093069;28;20040;-63
2022/02/15 09:20:13;;;;;;;5.63;2.72;;;;;;;5.73;78.74;97105.94;5088877;28;20040;-65
2022/02/15 09:22:40;;;;;;;5.43;2.80;;;;;;;5.95;78.26;97102.75;5088673;28;20501;-63
2022/02/15 09:25:10;;;;;;;4.88;2.30;;;;;;;6.22;77.94;97102.38;5099266;28;20071;-63
2022/02/15 09:27:36;;;;;;;7.20;2.47;;;;;;;6.47;76.48;97101.38;5081216;28;20048;-63
2022/02/15 09:30:05;;;;;;;4.10;1.98;;;;;;;6.25;73.49;97111.84;5077180;28;20045;-65
2022/02/15 09:32:32;;;;;;;4.65;2.17;;;;;;;6.24;74.48;97104.84;5093563;28;20047;-64
2022/02/15 09:34:59;;;;;;;4.30;2.20;;;;;;;6.27;73.62;97119.69;5078795;28;20044;-65
2022/02/15 09:37:25;;;;;;;6.20;2.65;;;;;;;6.22;74.45;97120.34;5078242;28;20055;-64
2022/02/15 09:39:55;;;;;;;4.97;2.50;;;;;;;6.34;72.80;97123.91;5083298;28;20047;-62
2022/02/15 09:42:23;;;;;;;3.70;2.10;;;;;;;6.49;73.30;97119.97;5088827;28;20040;-62
2022/02/15 09:44:50;;;;;;;5.00;3.05;;;;;;;6.10;74.22;97118.47;5076694;28;20044;-63
2022/02/15 09:47:26;;;;;;;3.55;1.80;;;;;;;6.12;71.83;97120.94;5086342;28;20047;-64
2022/02/15 09:49:53;;;;;;;4.55;2.40;;;;;;;6.14;73.14;97126.06;5098687;28;20051;-64
2022/02/15 09:52:24;;;;;;;5.97;2.05;;;;;;;5.97;73.50;97118.66;5097658;28;20055;-63
2022/02/15 09:54:53;;;;;;;3.70;2.03;;;;;;;5.86;73.27;97123.72;5087283;28;20105;-64
2022/02/15 09:57:20;;;;;;;3.28;1.60;;;;;;;5.70;72.36;97124.34;5085985;28;20044;-64
2022/02/15 09:59:47;;;;;;;3.92;2.35;;;;;;;5.94;73.18;97122.56;5086966;28;20048;-64
2022/02/15 10:02:17;;;;;;;4.28;1.75;;;;;;;6.21;72.86;97129.47;5086393;28;20036;-64
2022/02/15 10:04:44;;;;;;;2.88;1.50;;;;;;;6.32;71.34;97136.78;5074426;28;20048;-66
2022/02/15 10:07:12;;;;;;;3.03;1.65;;;;;;;6.14;72.27;97134.13;5072971;28;20055;-64
2022/02/15 10:09:41;;;;;;;3.40;1.48;;;;;;;6.13;71.53;97129.81;5099795;28;20058;-65
2022/02/15 10:12:10;;;;;;;3.80;2.13;;;;;;;5.67;72.96;97125.63;5093963;28;20043;-64
2022/02/15 10:14:39;;;;;;;4.65;2.20;;;;;;;5.52;73.45;97128.72;5090761;28;20044;-67
2022/02/15 10:17:09;;;;;;;3.88;1.63;;;;;;;5.42;73.49;97136.47;5082105;28;20050;-65
2022/02/15 10:19:37;;;;;;;4.38;2.15;;;;;;;5.38;72.50;97143.34;5076110;28;20055;-65
2022/02/15 10:22:05;;;;;;;4.63;2.67;;;;;;;5.47;72.59;97139.31;5083191;28;20040;-65
2022/02/15 10:24:35;;;;;;;5.40;1.55;;;;;;;5.65;73.28;97143.84;5081763;28;20052;-65
2022/02/15 10:27:12;;;;;;;3.92;1.73;;;;;;;5.86;72.82;97147.91;5083534;28;20055;-65
2022/02/15 10:29:41;;;;;;;2.70;1.45;;;;;;;5.91;71.17;97151.78;5096089;28;20035;-65
2022/02/15 10:32:13;;;;;;;3.47;1.80;;;;;;;6.07;70.78;97159.25;5082221;28;20098;-65
2022/02/15 10:34:53;;;;;;;2.75;1.42;;;;;;;6.21;71.36;97154.50;5087607;28;20075;-65
2022/02/15 10:37:22;;;;;;;8.38;1.90;;;;;;;6.24;71.12;97153.22;5084166;28;20052;-70
2022/02/15 10:39:56;;;;;;;3.50;1.15;;;;;;;6.34;71.41;97158.84;5077341;28;20044;-69
2022/02/15 10:42:24;;;;;;;5.30;1.60;;;;;;;6.03;70.87;97170.63;5084691;28;20048;-68
2022/02/15 10:44:59;;;;;;;3.58;1.45;;;;;;;5.90;70.93;97177.81;5084797;28;20043;-69
2022/02/15 10:47:29;;;;;;;2.28;1.23;;;;;;;5.84;69.80;97173.38;5075853;28;20653;-70
2022/02/15 10:49:58;;;;;;;4.18;1.70;;;;;;;5.77;70.67;97191.44;5071669;28;20047;-70
2022/02/15 10:52:25;;;;;;;3.22;1.42;;;;;;;5.89;69.13;97178.06;5082850;28;20082;-67
2022/02/15 10:54:52;;;;;;;2.88;1.58;;;;;;;6.07;68.58;97179.91;5085996;28;20040;-69
2022/02/15 10:57:19;;;;;;;5.75;1.85;;;;;;;6.05;67.92;97171.28;5082640;28;20546;-69
2022/02/15 10:59:48;;;;;;;2.08;1.35;;;;;;;6.13;69.10;97178.19;5085909;28;20048;-67
2022/02/15 11:02:25;;;;;;;3.20;1.73;;;;;;;6.10;68.95;97183.00;5082993;28;20048;-70
2022/02/15 11:04:54;;;;;;;4.00;1.30;;;;;;;6.20;68.04;97190.50;5085256;28;20052;-70
2022/02/15 11:07:26;;;;;;;3.92;1.50;;;;;;;6.33;68.52;97196.72;5084767;28;20048;-70
2022/02/15 11:10:19;;;;;;;3.17;1.92;;;;;;;6.22;69.92;97192.94;5079639;28;20060;-68
2022/02/15 11:12:56;;;;;;;2.97;1.50;;;;;;;6.40;69.62;97188.56;5074370;28;20036;-69
2022/02/15 11:15:27;;;;;;;4.35;1.50;;;;;;;6.35;68.52;97192.75;5079841;28;20519;-70
2022/02/15 11:17:58;;;;;;;2.42;1.13;;;;;;;6.35;67.95;97200.81;5074645;28;20048;-68
2022/02/15 11:20:30;;;;;;;4.70;1.80;;;;;;;6.34;67.07;97201.09;5085213;28;20039;-71
2022/02/15 11:22:57;;;;;;;;;;;;;;;6.38;67.81;97207.66;5078386;28;20052;-68
2022/02/15 11:25:30;;;;;;;3.85;1.85;;;;;;;6.33;67.66;97202.09;5083420;28;20291;-68
2022/02/15 11:28:08;;;;;;;2.75;1.33;;;;;;;6.36;68.82;97207.03;5078091;28;20036;-64
2022/02/15 11:31:02;;;;;;;3.25;1.52;;;;;;;5.96;69.02;97200.28;5076783;28;20094;-64
2022/02/15 11:33:32;;;;;;;3.88;1.58;;;;;;;6.04;68.40;97199.22;5079583;28;20527;-64
2022/02/15 11:36:10;;;;;;;4.57;1.77;;;;;;;6.14;68.67;97202.16;5085262;28;20721;-65
2022/02/15 11:38:36;;;;;;;3.78;1.83;;;;;;;6.34;66.90;97203.78;5083737;28;20105;-65
2022/02/15 11:41:12;;;;;;;2.47;1.27;;;;;;;6.42;67.05;97200.75;5092818;28;20070;-65
2022/02/15 11:43:39;;;;;;;4.28;1.70;;;;;;;6.35;68.34;97202.72;5086872;28;20032;-65
2022/02/15 11:46:05;;;;;;;4.20;1.80;;;;;;;6.55;66.80;97209.66;5084116;28;20044;-64
2022/02/15 11:48:41;;;;;;;3.42;1.63;;;;;;;6.67;67.12;97193.56;5098193;28;20051;-65
2022/02/15 11:51:22;;;;;;;6.60;1.95;;;;;;;6.60;67.19;97193.66;5098355;28;20074;-64
2022/02/15 11:53:55;;;;;;;4.45;1.92;;;;;;;6.87;67.85;97202.16;5090815;28;20489;-65
2022/02/15 11:56:22;;;;;;;5.47;2.08;;;;;;;6.99;66.46;97198.63;5086730;28;20052;-66